createdAt,value
2023-05-05T00:02:10.036Z,96993.59
2023-05-05T00:04:38.926Z,97003.38
2023-05-05T00:07:06.470Z,96999.41
2023-05-05T00:09:34.009Z,96992.78
2023-05-05T00:12:01.622Z,96993.91
2023-05-05T00:14:29.155Z,96988.50
2023-05-05T00:16:56.771Z,96991.97
2023-05-05T00:19:24.277Z,96990.91
2023-05-05T00:21:53.184Z,96986.09
2023-05-05T00:24:20.658Z,96991.59
2023-05-05T00:26:48.162Z,96983.50
2023-05-05T00:29:15.699Z,96986.25
2023-05-05T00:31:43.386Z,96993.28
2023-05-05T00:34:10.998Z,96983.50
2023-05-05T00:36:38.488Z,96984.81
2023-05-05T00:39:07.424Z,96987.03
2023-05-05T00:41:35.403Z,96989.06
2023-05-05T00:44:03.351Z,96993.28
2023-05-05T00:46:32.974Z,96991.97
2023-05-05T00:49:01.638Z,96997.31
2023-05-05T00:51:29.560Z,96991.28
2023-05-05T00:53:57.229Z,96999.47
2023-05-05T00:56:27.291Z,96994.41
2023-05-05T00:58:55.092Z,96996.66
2023-05-05T01:01:22.955Z,97004.69
2023-05-05T01:03:50.723Z,96992.88
2023-05-05T01:06:32.668Z,96989.13
2023-05-05T01:09:09.821Z,96990.41
2023-05-05T01:11:47.122Z,96988.84
2023-05-05T01:14:18.024Z,96991.50
2023-05-05T01:16:56.961Z,96986.78
2023-05-05T01:19:49.214Z,96987.75
2023-05-05T01:22:21.773Z,96995.47
2023-05-05T01:25:09.698Z,96996.25
2023-05-05T01:27:56.187Z,96990.91
2023-05-05T01:30:51.172Z,96995.94
2023-05-05T01:33:24.204Z,97002.38
2023-05-05T01:35:56.224Z,97003.47
2023-05-05T01:38:29.144Z,97005.88
2023-05-05T01:41:02.194Z,97008.88
2023-05-05T01:43:34.556Z,97006.19
2023-05-05T01:46:04.672Z,97013.13
2023-05-05T01:48:33.825Z,97007.59
2023-05-05T01:51:02.936Z,97010.25
2023-05-05T01:53:32.436Z,97002.00
2023-05-05T01:56:00.763Z,97004.03
2023-05-05T01:58:30.039Z,97001.69
2023-05-05T02:00:58.936Z,96996.41
2023-05-05T02:03:27.544Z,97003.59
2023-05-05T02:05:58.085Z,97000.91
2023-05-05T02:08:27.617Z,96998.41
2023-05-05T02:10:56.581Z,97002.84
2023-05-05T02:13:25.796Z,96998.94
2023-05-05T02:15:54.326Z,96992.03
2023-05-05T02:18:23.062Z,96992.81
2023-05-05T02:20:50.622Z,96990.88
2023-05-05T02:23:20.052Z,96996.09
2023-05-05T02:25:52.906Z,96989.00
2023-05-05T02:28:23.490Z,96990.41
2023-05-05T02:30:57.687Z,96990.00
2023-05-05T02:33:27.049Z,96997.41
2023-05-05T02:35:57.257Z,96991.59
2023-05-05T02:38:30.125Z,96990.59
2023-05-05T02:41:00.385Z,96989.41
2023-05-05T02:43:31.573Z,96992.84
2023-05-05T02:45:59.461Z,96993.59
2023-05-05T02:48:29.557Z,96989.59
2023-05-05T02:50:57.109Z,96992.53
2023-05-05T02:53:27.744Z,96983.59
2023-05-05T02:55:59.610Z,96989.69
2023-05-05T02:58:30.804Z,96989.31
2023-05-05T03:01:09.424Z,96991.59
2023-05-05T03:03:41.779Z,96994.25
2023-05-05T03:06:15.217Z,96992.81
2023-05-05T03:08:51.292Z,96985.94
2023-05-05T03:11:24.852Z,96998.41
2023-05-05T03:14:02.084Z,96994.16
2023-05-05T03:16:32.071Z,96989.78
2023-05-05T03:19:00.808Z,96989.72
2023-05-05T03:21:28.717Z,96982.50
2023-05-05T03:23:58.250Z,96982.50
2023-05-05T03:26:25.768Z,96985.97
2023-05-05T03:28:53.274Z,96996.38
2023-05-05T03:31:21.028Z,96989.03
2023-05-05T03:33:48.560Z,96991.81
2023-05-05T03:36:16.059Z,96995.47
2023-05-05T03:38:43.548Z,96996.91
2023-05-05T03:41:12.469Z,96992.63
2023-05-05T03:43:41.226Z,96998.91
2023-05-05T03:46:10.218Z,96998.78
2023-05-05T03:48:37.857Z,96992.16
2023-05-05T03:51:05.543Z,96991.69
2023-05-05T03:53:33.041Z,96987.56
2023-05-05T03:56:00.616Z,96987.56
2023-05-05T03:58:29.507Z,96994.47
2023-05-05T04:00:56.997Z,96992.78
2023-05-05T04:03:24.852Z,96997.06
2023-05-05T04:05:52.565Z,97010.09
2023-05-05T04:08:20.124Z,97001.91
2023-05-05T04:10:47.681Z,96999.44
2023-05-05T04:13:15.320Z,97006.06
2023-05-05T04:15:46.849Z,97006.41
2023-05-05T04:18:14.483Z,97012.34
2023-05-05T04:20:42.102Z,97005.41
2023-05-05T04:23:09.585Z,97007.66
2023-05-05T04:25:37.163Z,97008.22
2023-05-05T04:28:05.414Z,97011.22
2023-05-05T04:30:32.959Z,97004.94
2023-05-05T04:33:01.832Z,97009.78
2023-05-05T04:35:29.355Z,97013.56
2023-05-05T04:37:56.948Z,97017.78
2023-05-05T04:40:26.101Z,97020.69
2023-05-05T04:42:53.643Z,97016.63
2023-05-05T04:45:21.179Z,97019.75
2023-05-05T04:47:48.923Z,97022.66
2023-05-05T04:50:17.882Z,97019.22
2023-05-05T04:52:45.368Z,97016.28
2023-05-05T04:55:12.907Z,97017.50
2023-05-05T04:57:40.706Z,97019.22
2023-05-05T05:00:09.845Z,97012.44
2023-05-05T05:02:38.477Z,97020.25
2023-05-05T05:05:06.897Z,97020.25
2023-05-05T05:07:35.794Z,97017.78
2023-05-05T05:10:03.315Z,97013.88
2023-05-05T05:12:30.943Z,97019.69
2023-05-05T05:14:58.457Z,97018.28
2023-05-05T05:17:26.862Z,97022.19
2023-05-05T05:19:56.053Z,97024.22
2023-05-05T05:22:23.686Z,97015.81
2023-05-05T05:24:52.780Z,97029.47
2023-05-05T05:27:20.304Z,97030.94
2023-05-05T05:29:47.848Z,97028.59
2023-05-05T05:32:15.377Z,97029.50
2023-05-05T05:34:42.936Z,97026.84
2023-05-05T05:37:10.538Z,97028.50
2023-05-05T05:39:38.069Z,97031.75
2023-05-05T05:42:07.055Z,97034.97
2023-05-05T05:44:34.622Z,97041.19
2023-05-05T05:47:02.121Z,97037.81
2023-05-05T05:49:29.621Z,97037.44
2023-05-05T05:51:57.192Z,97042.56
2023-05-05T05:54:24.783Z,97038.84
2023-05-05T05:56:52.290Z,97043.81
2023-05-05T05:59:21.164Z,97042.81
2023-05-05T06:01:48.636Z,97051.38
2023-05-05T06:04:16.207Z,97051.50
2023-05-05T06:06:43.754Z,97056.19
2023-05-05T06:09:11.332Z,97050.41
2023-05-05T06:11:38.887Z,97050.03
2023-05-05T06:14:06.390Z,97040.94
2023-05-05T06:16:35.233Z,97047.59
2023-05-05T06:19:02.791Z,97048.50
2023-05-05T06:21:30.450Z,97047.41
2023-05-05T06:23:58.037Z,97047.81
2023-05-05T06:26:26.067Z,97053.41
2023-05-05T06:28:53.550Z,97051.13
2023-05-05T06:31:21.179Z,97047.88
2023-05-05T06:33:50.028Z,97044.41
2023-05-05T06:36:17.570Z,97037.50
2023-05-05T06:38:45.172Z,97043.19
2023-05-05T06:41:12.654Z,97043.53
2023-05-05T06:43:42.879Z,97048.59
2023-05-05T06:46:10.768Z,97042.66
2023-05-05T06:48:38.364Z,97048.91
2023-05-05T06:51:07.458Z,97049.97
2023-05-05T06:53:35.045Z,97052.59
2023-05-05T06:56:02.644Z,97054.84
2023-05-05T06:58:30.322Z,97059.00
2023-05-05T07:00:57.887Z,97060.91
2023-05-05T07:03:26.167Z,97055.56
2023-05-05T07:05:54.876Z,97053.13
2023-05-05T07:08:23.728Z,97050.38
2023-05-05T07:10:51.293Z,97045.06
2023-05-05T07:13:18.904Z,97055.97
2023-05-05T07:15:47.062Z,97050.22
2023-05-05T07:18:14.878Z,97050.78
2023-05-05T07:20:42.531Z,97043.94
2023-05-05T07:23:11.145Z,97046.63
2023-05-05T07:25:40.072Z,97048.47
2023-05-05T07:28:07.619Z,97038.41
2023-05-05T07:30:35.187Z,97039.06
2023-05-05T07:33:02.858Z,97031.25
2023-05-05T07:35:30.628Z,97041.53
2023-05-05T07:37:58.152Z,97033.03
2023-05-05T07:40:26.087Z,97034.16
2023-05-05T07:42:55.108Z,97036.84
2023-05-05T07:45:22.671Z,97035.91
2023-05-05T07:47:50.596Z,97029.63
2023-05-05T07:50:18.538Z,97034.56
2023-05-05T07:52:49.849Z,97032.22
2023-05-05T07:55:21.698Z,97034.66
2023-05-05T07:57:49.606Z,97031.75
2023-05-05T08:00:19.799Z,97020.94
2023-05-05T08:02:47.896Z,97025.75
2023-05-05T08:05:15.744Z,97022.41
2023-05-05T08:07:43.299Z,97023.00
2023-05-05T08:10:12.663Z,97022.63
2023-05-05T08:12:40.790Z,97017.84
2023-05-05T08:15:09.441Z,97022.31
2023-05-05T08:17:49.926Z,97020.63
2023-05-05T08:20:18.123Z,97018.59
2023-05-05T08:22:46.251Z,97015.06
2023-05-05T08:25:14.380Z,97010.06
2023-05-05T08:27:43.109Z,97011.72
2023-05-05T08:30:11.796Z,97009.25
2023-05-05T08:32:39.423Z,97008.88
2023-05-05T08:35:09.287Z,97008.13
2023-05-05T08:37:37.159Z,97016.66
2023-05-05T08:40:05.438Z,97005.56
2023-05-05T08:42:37.756Z,97000.59
2023-05-05T08:45:07.118Z,96999.50
2023-05-05T08:47:35.892Z,97005.53
2023-05-05T08:50:05.620Z,97005.50
2023-05-05T08:52:40.391Z,96996.63
2023-05-05T08:55:15.236Z,96991.72
2023-05-05T08:57:51.649Z,96993.59
2023-05-05T09:00:20.739Z,96991.69
2023-05-05T09:02:49.049Z,96986.66
2023-05-05T09:05:18.484Z,96988.03
2023-05-05T09:07:47.702Z,96990.44
2023-05-05T09:10:15.584Z,96993.19
2023-05-05T09:12:43.508Z,96983.91
2023-05-05T09:15:13.745Z,96982.22
2023-05-05T09:17:41.856Z,96985.44
2023-05-05T09:20:10.932Z,96990.88
2023-05-05T09:22:39.896Z,96981.50
2023-05-05T09:25:12.000Z,96987.91
2023-05-05T09:27:41.815Z,96979.97
2023-05-05T09:30:10.858Z,96978.81
2023-05-05T09:32:46.341Z,96971.25
2023-05-05T09:35:14.232Z,96968.69
2023-05-05T09:37:42.071Z,96967.47
2023-05-05T09:40:13.716Z,96960.94
2023-05-05T09:42:42.219Z,96958.91
2023-05-05T09:45:27.239Z,96953.78
2023-05-05T09:47:59.198Z,96956.41
2023-05-05T09:50:30.288Z,96957.41
2023-05-05T09:52:59.508Z,96956.72
2023-05-05T09:55:28.703Z,96946.56
2023-05-05T09:57:56.355Z,96952.28
2023-05-05T10:00:38.815Z,96946.78
2023-05-05T10:03:06.529Z,96939.44
2023-05-05T10:05:34.286Z,96944.06
2023-05-05T10:08:13.758Z,96928.66
2023-05-05T10:10:48.229Z,96921.69
2023-05-05T10:13:19.036Z,96917.13
2023-05-05T10:15:49.076Z,96917.84
2023-05-05T10:18:21.006Z,96917.38
2023-05-05T10:20:52.874Z,96921.13
2023-05-05T10:23:24.323Z,96917.03
2023-05-05T10:25:56.568Z,96914.69
2023-05-05T10:28:32.555Z,96913.94
2023-05-05T10:31:04.249Z,96908.78
2023-05-05T10:33:50.190Z,96896.56
2023-05-05T10:36:17.973Z,96904.66
2023-05-05T10:38:47.321Z,96899.63
2023-05-05T10:41:17.351Z,96891.50
2023-05-05T10:43:46.031Z,96888.41
2023-05-05T10:46:14.088Z,96894.84
2023-05-05T10:48:56.047Z,96885.75
2023-05-05T10:51:39.220Z,96895.31
2023-05-05T10:54:12.404Z,96882.44
2023-05-05T10:56:42.169Z,96874.75
2023-05-05T10:59:43.548Z,96875.66
2023-05-05T11:02:25.544Z,96868.06
2023-05-05T11:05:09.069Z,96867.66
2023-05-05T11:07:36.691Z,96863.00
2023-05-05T11:10:06.723Z,96864.59
2023-05-05T11:13:18.334Z,96860.75
2023-05-05T11:15:46.094Z,96856.84
2023-05-05T11:18:36.381Z,96849.09
2023-05-05T11:21:15.276Z,96843.63
2023-05-05T11:23:44.809Z,96839.25
2023-05-05T11:26:13.087Z,96838.03
2023-05-05T11:29:12.256Z,96839.59
2023-05-05T11:31:39.872Z,96823.41
2023-05-05T11:34:31.070Z,96828.00
2023-05-05T11:37:02.739Z,96829.84
2023-05-05T11:39:41.215Z,96823.66
2023-05-05T11:42:25.434Z,96818.34
2023-05-05T11:44:55.394Z,96821.63
2023-05-05T11:47:29.094Z,96818.13
2023-05-05T11:49:56.994Z,96826.25
2023-05-05T11:52:27.273Z,96818.94
2023-05-05T11:54:54.977Z,96818.91
2023-05-05T11:57:29.714Z,96816.13
2023-05-05T12:00:00.988Z,96811.94
2023-05-05T12:02:30.168Z,96816.97
2023-05-05T12:04:59.518Z,96816.59
2023-05-05T12:07:29.067Z,96809.66
2023-05-05T12:09:56.761Z,96810.47
2023-05-05T12:12:35.501Z,96813.97
2023-05-05T12:15:05.344Z,96812.00
2023-05-05T12:17:42.654Z,96805.00
2023-05-05T12:20:11.466Z,96807.25
2023-05-05T12:22:40.417Z,96806.00
2023-05-05T12:25:09.159Z,96802.16
2023-05-05T12:27:36.993Z,96797.88
2023-05-05T12:30:17.732Z,96799.44
2023-05-05T12:32:46.387Z,96789.31
2023-05-05T12:35:15.802Z,96790.78
2023-05-05T12:37:43.938Z,96785.25
2023-05-05T12:40:45.033Z,96782.09
2023-05-05T12:43:28.453Z,96781.97
2023-05-05T12:46:08.287Z,96775.06
2023-05-05T12:48:37.801Z,96761.88
2023-05-05T12:51:16.620Z,96764.06
2023-05-05T12:53:44.906Z,96766.56
2023-05-05T12:56:32.505Z,96759.00
2023-05-05T12:59:00.800Z,96754.19
2023-05-05T13:01:31.175Z,96749.59
2023-05-05T13:04:10.603Z,96738.19
2023-05-05T13:06:38.788Z,96728.84
2023-05-05T13:09:07.337Z,96726.34
2023-05-05T13:11:38.745Z,96722.16
2023-05-05T13:14:07.666Z,96717.19
2023-05-05T13:16:36.754Z,96706.66
2023-05-05T13:19:04.264Z,96709.78
2023-05-05T13:21:31.811Z,96705.63
2023-05-05T13:24:12.406Z,96695.16
2023-05-05T13:26:46.969Z,96682.09
2023-05-05T13:29:14.529Z,96682.00
2023-05-05T13:31:43.710Z,96674.31
2023-05-05T13:34:11.356Z,96675.00
2023-05-05T13:36:38.932Z,96673.44
2023-05-05T13:39:06.957Z,96669.50
2023-05-05T13:41:34.505Z,96679.91
2023-05-05T13:44:02.061Z,96677.19
2023-05-05T13:46:29.643Z,96676.75
2023-05-05T13:48:58.473Z,96675.41
2023-05-05T13:51:26.089Z,96676.56
2023-05-05T13:53:53.854Z,96672.06
2023-05-05T13:56:23.356Z,96664.41
2023-05-05T13:58:50.868Z,96661.94
2023-05-05T14:01:18.541Z,96664.31
2023-05-05T14:03:46.106Z,96664.38
2023-05-05T14:06:14.986Z,96669.06
2023-05-05T14:08:42.625Z,96663.34
2023-05-05T14:11:10.122Z,96660.09
2023-05-05T14:13:37.961Z,96658.19
2023-05-05T14:16:06.037Z,96656.34
2023-05-05T14:18:33.550Z,96641.16
2023-05-05T14:21:01.080Z,96640.69
2023-05-05T14:23:29.947Z,96624.81
2023-05-05T14:25:57.610Z,96629.63
2023-05-05T14:28:25.384Z,96623.88
2023-05-05T14:30:52.986Z,96631.00
2023-05-05T14:33:20.596Z,96621.78
2023-05-05T14:35:48.115Z,96633.47
2023-05-05T14:38:15.665Z,96632.69
2023-05-05T14:40:44.631Z,96649.28
2023-05-05T14:43:12.196Z,96644.28
2023-05-05T14:45:39.731Z,96648.13
2023-05-05T14:48:07.289Z,96654.38
2023-05-05T14:50:34.768Z,96636.19
2023-05-05T14:53:02.279Z,96648.22
2023-05-05T14:55:29.834Z,96642.03
2023-05-05T14:57:58.671Z,96652.06
2023-05-05T15:00:26.759Z,96656.66
2023-05-05T15:02:54.391Z,96651.25
2023-05-05T15:05:21.937Z,96653.94
2023-05-05T15:07:49.478Z,96655.06
2023-05-05T15:10:18.175Z,96657.38
2023-05-05T15:12:46.810Z,96662.75
2023-05-05T15:15:15.829Z,96661.19
2023-05-05T15:17:43.457Z,96665.00
2023-05-05T15:20:12.062Z,96664.13
2023-05-05T15:22:39.614Z,96678.66
2023-05-05T15:25:12.049Z,96690.53
2023-05-05T15:27:39.719Z,96718.63
2023-05-05T15:30:08.246Z,96786.13
2023-05-05T15:32:37.168Z,96795.38
2023-05-05T15:35:05.015Z,96799.09
2023-05-05T15:37:32.762Z,96782.34
2023-05-05T15:40:00.423Z,96817.66
2023-05-05T15:42:27.969Z,96828.22
2023-05-05T15:44:55.496Z,96840.19
2023-05-05T15:47:23.026Z,96853.28
2023-05-05T15:49:52.034Z,96831.50
2023-05-05T15:52:19.630Z,96833.00
2023-05-05T15:54:47.168Z,96838.53
2023-05-05T15:57:14.762Z,96829.03
2023-05-05T15:59:42.273Z,96822.31
2023-05-05T16:02:09.791Z,96826.22
2023-05-05T16:04:37.410Z,96820.91
2023-05-05T16:07:06.239Z,96790.69
2023-05-05T16:09:33.903Z,96805.16
2023-05-05T16:12:02.582Z,96798.66
2023-05-05T16:14:31.960Z,96831.25
2023-05-05T16:17:01.021Z,96825.69
2023-05-05T16:19:29.220Z,96814.94
2023-05-05T16:21:57.035Z,96827.00
2023-05-05T16:24:25.994Z,96832.84
2023-05-05T16:26:53.846Z,96851.22
2023-05-05T16:29:21.362Z,96857.19
2023-05-05T16:31:48.952Z,96862.34
2023-05-05T16:34:16.489Z,96857.47
2023-05-05T16:36:44.571Z,96861.94
2023-05-05T16:39:12.532Z,96869.13
2023-05-05T16:41:41.595Z,96862.28
2023-05-05T16:44:09.142Z,96866.28
2023-05-05T16:46:37.298Z,96863.59
2023-05-05T16:49:05.097Z,96867.69
2023-05-05T16:51:32.613Z,96856.97
2023-05-05T16:54:00.170Z,96854.63
2023-05-05T16:56:27.690Z,96852.22
2023-05-05T16:58:56.539Z,96851.22
2023-05-05T17:01:24.141Z,96857.59
2023-05-05T17:03:51.692Z,96856.81
2023-05-05T17:06:19.243Z,96856.31
2023-05-05T17:08:46.764Z,96857.19
2023-05-05T17:11:14.320Z,96850.41
2023-05-05T17:13:41.889Z,96850.34
2023-05-05T17:16:10.754Z,96855.06
2023-05-05T17:18:38.350Z,96855.00
2023-05-05T17:21:06.448Z,96838.13
2023-05-05T17:23:34.047Z,96853.00
2023-05-05T17:26:03.104Z,96852.72
2023-05-05T17:28:30.629Z,96868.47
2023-05-05T17:30:59.796Z,96876.47
2023-05-05T17:33:28.720Z,96878.19
2023-05-05T17:35:56.316Z,96889.75
2023-05-05T17:38:23.918Z,96891.47
2023-05-05T17:40:51.417Z,96898.09
2023-05-05T17:43:18.929Z,96903.47
2023-05-05T17:45:46.689Z,96914.34
2023-05-05T17:48:14.340Z,96914.94
2023-05-05T17:50:43.627Z,96904.94
2023-05-05T17:53:11.772Z,96908.63
2023-05-05T17:55:39.353Z,96908.91
2023-05-05T17:58:07.033Z,96921.31
2023-05-05T18:00:34.565Z,96907.09
2023-05-05T18:03:02.238Z,96921.88
2023-05-05T18:05:31.392Z,96915.66
2023-05-05T18:08:00.459Z,96918.63
2023-05-05T18:10:28.011Z,96917.66
2023-05-05T18:12:55.580Z,96918.06
2023-05-05T18:15:23.436Z,96910.88
2023-05-05T18:17:50.958Z,96916.34
2023-05-05T18:20:18.752Z,96920.91
2023-05-05T18:22:46.565Z,96922.19
2023-05-05T18:25:15.500Z,96920.69
2023-05-05T18:27:43.801Z,96922.19
2023-05-05T18:30:12.231Z,96923.59
2023-05-05T18:32:39.852Z,96934.94
2023-05-05T18:35:08.374Z,96942.84
2023-05-05T18:37:36.117Z,96938.00
2023-05-05T18:40:03.670Z,96937.16
2023-05-05T18:42:32.582Z,96937.47
2023-05-05T18:45:00.129Z,96943.13
2023-05-05T18:47:28.501Z,96944.56
2023-05-05T18:49:56.308Z,96945.66
2023-05-05T18:52:24.004Z,96941.00
2023-05-05T18:54:51.538Z,96945.44
2023-05-05T18:57:19.117Z,96944.63
2023-05-05T18:59:47.974Z,96953.59
2023-05-05T19:02:16.815Z,96945.09
2023-05-05T19:04:44.917Z,96952.91
2023-05-05T19:07:16.334Z,96960.53
2023-05-05T19:09:48.639Z,96967.66
2023-05-05T19:12:16.156Z,96964.94
2023-05-05T19:14:43.657Z,96965.19
2023-05-05T19:17:12.607Z,96962.38
2023-05-05T19:19:40.260Z,96967.59
2023-05-05T19:22:07.755Z,96979.03
2023-05-05T19:24:35.637Z,96974.28
2023-05-05T19:27:03.820Z,96970.78
2023-05-05T19:29:32.025Z,96970.13
2023-05-05T19:31:59.620Z,96976.94
2023-05-05T19:34:28.591Z,96973.97
2023-05-05T19:36:56.209Z,96979.81
2023-05-05T19:39:23.730Z,96970.38
2023-05-05T19:41:51.477Z,96989.69
2023-05-05T19:44:18.953Z,96989.91
2023-05-05T19:46:46.492Z,96997.72
2023-05-05T19:49:14.013Z,96992.38
2023-05-05T19:51:43.664Z,96999.81
2023-05-05T19:54:11.324Z,97003.38
2023-05-05T19:56:38.881Z,97010.88
2023-05-05T19:59:06.616Z,97003.97
2023-05-05T20:01:34.462Z,97008.97
2023-05-05T20:04:03.212Z,97010.53
2023-05-05T20:06:30.774Z,97008.97
2023-05-05T20:09:00.353Z,97006.97
2023-05-05T20:11:27.934Z,97009.06
2023-05-05T20:13:55.648Z,97006.84
2023-05-05T20:16:23.308Z,97014.31
2023-05-05T20:18:50.929Z,97012.75
2023-05-05T20:21:18.679Z,97002.50
2023-05-05T20:23:46.605Z,97008.41
2023-05-05T20:26:15.608Z,97003.16
2023-05-05T20:28:45.300Z,97019.50
2023-05-05T20:31:14.360Z,97020.03
2023-05-05T20:33:41.917Z,97019.56
2023-05-05T20:36:09.438Z,97021.38
2023-05-05T20:38:37.054Z,97024.63
2023-05-05T20:41:04.607Z,97017.38
2023-05-05T20:43:33.914Z,97018.59
2023-05-05T20:46:02.559Z,97023.16
2023-05-05T20:48:30.137Z,97026.16
2023-05-05T20:50:58.829Z,97016.16
2023-05-05T20:53:26.418Z,97019.28
2023-05-05T20:55:53.953Z,97008.13
2023-05-05T20:58:21.511Z,97015.69
2023-05-05T21:00:50.548Z,97015.34
2023-05-05T21:03:18.150Z,97018.91
2023-05-05T21:05:46.104Z,97008.00
2023-05-05T21:08:13.697Z,97008.22
2023-05-05T21:10:41.287Z,97007.59
2023-05-05T21:13:08.832Z,96999.78
2023-05-05T21:15:37.977Z,96998.59
2023-05-05T21:18:07.494Z,96996.50
2023-05-05T21:20:35.763Z,96993.63
2023-05-05T21:23:03.266Z,96988.28
2023-05-05T21:25:30.913Z,96988.72
2023-05-05T21:27:58.409Z,96992.97
2023-05-05T21:30:26.043Z,96985.78
2023-05-05T21:32:53.614Z,96990.03
2023-05-05T21:35:22.637Z,96985.59
2023-05-05T21:37:50.258Z,96981.50
2023-05-05T21:40:18.013Z,96984.63
2023-05-05T21:42:45.512Z,96989.22
2023-05-05T21:45:13.087Z,96992.69
2023-05-05T21:47:40.749Z,96989.75
2023-05-05T21:50:09.456Z,96989.44
2023-05-05T21:52:38.529Z,96975.25
2023-05-05T21:55:07.065Z,96978.81
2023-05-05T21:57:34.585Z,96971.72
2023-05-05T22:00:02.080Z,96975.03
2023-05-05T22:02:29.693Z,96978.00
2023-05-05T22:04:57.332Z,96974.78
2023-05-05T22:07:25.835Z,96987.03
2023-05-05T22:09:54.865Z,96976.34
2023-05-05T22:12:22.423Z,96974.13
2023-05-05T22:14:49.950Z,96974.13
2023-05-05T22:17:17.461Z,96967.25
2023-05-05T22:19:45.000Z,96975.97
2023-05-05T22:22:12.613Z,96968.41
2023-05-05T22:24:40.203Z,96960.06
2023-05-05T22:27:09.046Z,96959.03
2023-05-05T22:29:36.879Z,96964.22
2023-05-05T22:32:04.490Z,96960.94
2023-05-05T22:34:32.036Z,96959.63
2023-05-05T22:36:59.556Z,96957.09
2023-05-05T22:39:27.056Z,96958.03
2023-05-05T22:41:54.614Z,96952.53
2023-05-05T22:44:23.446Z,96958.94
2023-05-05T22:46:51.006Z,96956.03
2023-05-05T22:49:18.536Z,96957.81
2023-05-05T22:51:46.845Z,96965.91
2023-05-05T22:54:14.397Z,96965.06
2023-05-05T22:56:41.938Z,96961.53
2023-05-05T22:59:09.470Z,96962.81
2023-05-05T23:01:38.873Z,96956.59
2023-05-05T23:04:06.620Z,96960.56
2023-05-05T23:06:34.193Z,96954.50
2023-05-05T23:09:01.712Z,96959.66
2023-05-05T23:11:29.229Z,96961.81
2023-05-05T23:13:56.819Z,96961.44
2023-05-05T23:16:24.329Z,96952.22
2023-05-05T23:18:53.196Z,96955.91
2023-05-05T23:21:21.180Z,96955.19
2023-05-05T23:23:49.060Z,96953.09
2023-05-05T23:26:16.598Z,96954.72
2023-05-05T23:28:44.134Z,96953.28
2023-05-05T23:31:11.666Z,96952.84
2023-05-05T23:33:39.232Z,96954.06
2023-05-05T23:36:08.940Z,96951.53
2023-05-05T23:38:36.431Z,96943.66
2023-05-05T23:41:03.975Z,96952.47
2023-05-05T23:43:31.524Z,96955.75
2023-05-05T23:45:59.245Z,96952.41
2023-05-05T23:48:27.015Z,96942.25
2023-05-05T23:50:54.918Z,96942.69
2023-05-05T23:53:23.733Z,96942.94
2023-05-05T23:55:51.258Z,96944.16
2023-05-05T23:58:18.741Z,96938.78
